Portada
METAR-TAF:

METAR-TAF

Aeroports :

Bhopal, Índia

latitud: 23-17-15N, longitud: 77-20-15E, altitud: 524 m

Observació

L'informe es va fer fa 47 minuts, a les 10:00 UTC
Vent 7 kt del Sud
Temperatura 41°C
Humitat 13%
Pressió 1007 hPa
Visibilitat: 6000 m
Núvols disperses a una alçada de 3000 ft

METAR: VABP 061000Z 17007KT 6000 SCT030 41/07 Q1007 NOSIG

Hora: 16:17 (10:47 UTC)

Pronòstic

L'informe es va fer fa 2 hores i 47 minuts, a les 08:00 UTC
Pronòstic vàlid del 06 a les 09 UTC al 06 a les 18 UTC
Vent 10 kt del Oest/Sud-Oest
Visibilitat: 6000 m
Núvols disperses a una alçada de 2000 ft
Núvols disperses a una alçada de 10000 ft
Evolucionant progressivament
l' 06 a les 15 UTC al 06 a les 17 UTC
Vent 10 kt del Sud-Oest
Visibilitat: 5000 m
Escasses núvols a una alçada de 2000 ft
Núvols disperses a una alçada de 10000 ft
calitja

TAF: VABP 060800Z 0609/0618 25010KT 6000 SCT020 SCT100 BECMG 0615/0617 22010KT 5000 HZ FEW020 SCT100

Observacions i pronòstics meteorològics de més de 4000 aeroports (METAR i TAF).

Les estacions disponibles són els punts grocs i vermells al mapa.

Posi el ratolí al punt desitjat per veure el nom de l'estació.

Feu clic per veure les observacions i els pronòstics meteorològics.

Per canviar el mapa: feu clic els botons verds amb una creu de color negre per apropar; al botó verd amb un guió per allunyar la imatge; o en les fletxes verdes per a mapes adjacents.


METAR-TAF: